Time;durP1;ratioP1;P1;durP2;ratioP2;P2;SDS_P1;SDS_P2;PMS_P1;PMS_P2;Temp;Humidity;BMP_temperature;BMP_pressure;BME280_temperature;BME280_humidity;BME280_pressure;Samples;Min_cycle;Max_cycle;Signal;HPM_P1;HPM_P2
2023/04/19 00:01:00;;;;;;;;;;;;;;;27.61;30.24;98325.22;5091712;28;19953;-85
2023/04/19 00:03:27;;;;;;;;;;;;;;;27.35;29.82;98325.16;5088555;28;19924;-84
2023/04/19 00:05:53;;;;;;;;;;;;;;;27.25;30.15;98323.50;5090958;28;19943;-84
2023/04/19 00:08:19;;;;;;;;;;;;;;;26.97;30.32;98318.72;5088900;28;20006;-84
2023/04/19 00:10:45;;;;;;;;;;;;;;;27.06;31.00;98316.03;5090738;28;19917;-84
2023/04/19 00:13:11;;;;;;;;;;;;;;;27.01;30.52;98304.50;5086574;28;19988;-84
2023/04/19 00:15:37;;;;;;;;;;;;;;;26.86;30.68;98311.81;5090449;28;20387;-84
2023/04/19 00:18:03;;;;;;;;;;;;;;;26.77;30.68;98312.44;5088201;28;19916;-84
2023/04/19 00:20:29;;;;;;;;;;;;;;;26.71;30.99;98308.59;5091010;28;19955;-84
2023/04/19 00:22:57;;;;;;;;;;;;;;;26.85;30.93;98308.19;5091855;28;19923;-84
2023/04/19 00:25:24;;;;;;;;;;;;;;;27.06;30.83;98307.56;5090444;28;20330;-84
2023/04/19 00:27:50;;;;;;;;;;;;;;;27.23;30.59;98299.81;5085667;28;19928;-84
2023/04/19 00:30:16;;;;;;;;;;;;;;;27.31;30.15;98301.94;5086639;28;19927;-84
2023/04/19 00:32:42;;;;;;;;;;;;;;;27.26;30.46;98301.69;5092537;28;19920;-84
2023/04/19 00:35:08;;;;;;;;;;;;;;;27.41;29.96;98291.59;5072151;28;20545;-83
2023/04/19 00:37:34;;;;;;;;;;;;;;;27.40;29.93;98292.81;5083896;28;20011;-84
2023/04/19 00:40:00;;;;;;;;;;;;;;;27.48;30.44;98282.91;5083141;28;20283;-84
2023/04/19 00:42:26;;;;;;;;;;;;;;;27.48;29.91;98285.72;5083025;28;19920;-84
2023/04/19 00:44:52;;;;;;;;;;;;;;;27.28;29.98;98277.44;5087637;28;19925;-84
2023/04/19 00:47:19;;;;;;;;;;;;;;;27.17;30.17;98282.66;5088695;28;20010;-84
2023/04/19 00:49:45;;;;;;;;;;;;;;;26.96;30.38;98282.50;5086986;28;19924;-84
2023/04/19 00:52:11;;;;;;;;;;;;;;;26.63;30.48;98277.00;5101071;28;19920;-84
2023/04/19 00:54:40;;;;;;;;;;;;;;;26.51;31.09;98279.81;5083507;28;20387;-84
2023/04/19 00:57:05;;;;;;;;;;;;;;;26.68;31.54;98278.47;5079895;28;19924;-84
2023/04/19 00:59:33;;;;;;;;;;;;;;;26.93;30.77;98272.16;5089643;28;19920;-84
2023/04/19 01:01:59;;;;;;;;;;;;;;;27.23;30.52;98268.78;5086370;28;19927;-84
2023/04/19 01:04:25;;;;;;;;;;;;;;;27.33;30.94;98265.63;5083640;28;20427;-84
2023/04/19 01:06:52;;;;;;;;;;;;;;;27.29;31.46;98259.31;5088397;28;19920;-84
2023/04/19 01:09:18;;;;;;;;;;;;;;;27.31;30.60;98254.00;5088914;28;20368;-84
2023/04/19 01:11:44;;;;;;;;;;;;;;;27.15;30.34;98253.31;5082586;28;19925;-84
2023/04/19 01:14:10;;;;;;;;;;;;;;;26.95;30.68;98255.59;5093584;28;19924;-84
2023/04/19 01:16:37;;;;;;;;;;;;;;;26.75;30.75;98252.94;5092300;28;19927;-84
2023/04/19 01:19:03;;;;;;;;;;;;;;;26.66;30.91;98253.59;5080919;28;20285;-84
2023/04/19 01:21:31;;;;;;;;;;;;;;;26.69;30.70;98244.25;5073052;28;20019;-84
2023/04/19 01:23:57;;;;;;;;;;;;;;;26.79;30.42;98247.22;5087620;28;19931;-84
2023/04/19 01:26:23;;;;;;;;;;;;;;;26.66;30.97;98238.72;5082068;28;19920;-84
2023/04/19 01:28:49;;;;;;;;;;;;;;;26.87;31.24;98231.66;5073941;28;19978;-84
2023/04/19 01:31:15;;;;;;;;;;;;;;;27.02;30.71;98222.34;5094004;28;19913;-85
2023/04/19 01:33:41;;;;;;;;;;;;;;;27.15;30.65;98223.13;5080680;28;19920;-85
2023/04/19 01:36:07;;;;;;;;;;;;;;;26.78;30.76;98231.53;5093508;28;19916;-84
2023/04/19 01:38:34;;;;;;;;;;;;;;;26.41;31.20;98227.41;5092741;28;19928;-84
2023/04/19 01:41:00;;;;;;;;;;;;;;;26.11;31.81;98228.66;5085487;28;19920;-84
2023/04/19 01:43:26;;;;;;;;;;;;;;;26.11;31.53;98222.22;5075314;28;20024;-84
2023/04/19 01:45:52;;;;;;;;;;;;;;;26.13;31.50;98222.56;5075269;28;20019;-84
2023/04/19 01:48:18;;;;;;;;;;;;;;;26.05;31.26;98219.13;5080538;28;20362;-84
2023/04/19 01:50:44;;;;;;;;;;;;;;;25.97;31.70;98220.56;5087757;28;19944;-84
2023/04/19 01:53:11;;;;;;;;;;;;;;;25.91;32.05;98211.06;5084838;28;19920;-84
2023/04/19 01:55:37;;;;;;;;;;;;;;;25.86;32.01;98215.22;5081374;28;19928;-84
2023/04/19 01:58:03;;;;;;;;;;;;;;;25.73;31.62;98217.19;5087402;28;20045;-84
2023/04/19 02:00:29;;;;;;;;;;;;;;;25.88;31.77;98209.16;5081650;28;20019;-84
2023/04/19 02:02:55;;;;;;;;;;;;;;;25.68;31.90;98202.88;5092106;28;19946;-84
2023/04/19 02:05:21;;;;;;;;;;;;;;;25.91;31.60;98202.63;5095987;28;19926;-84
2023/04/19 02:07:47;;;;;;;;;;;;;;;25.88;31.59;98197.91;5092474;28;19978;-84
2023/04/19 02:10:13;;;;;;;;;;;;;;;26.05;31.96;98203.03;5090572;28;19989;-84
2023/04/19 02:12:40;;;;;;;;;;;;;;;26.46;31.36;98199.50;5089632;28;19928;-84
2023/04/19 02:15:06;;;;;;;;;;;;;;;26.60;31.21;98192.63;5091020;28;19924;-84
2023/04/19 02:17:32;;;;;;;;;;;;;;;26.66;31.04;98199.28;5089420;28;19920;-84
2023/04/19 02:19:58;;;;;;;;;;;;;;;26.62;31.33;98190.94;5087403;28;19927;-84
2023/04/19 02:22:24;;;;;;;;;;;;;;;26.79;31.04;98186.03;5091375;28;19943;-84
2023/04/19 02:24:50;;;;;;;;;;;;;;;26.79;31.27;98179.59;5093349;28;19920;-84
2023/04/19 02:27:16;;;;;;;;;;;;;;;26.71;30.91;98176.19;5093513;28;20388;-84
2023/04/19 02:29:43;;;;;;;;;;;;;;;26.61;30.98;98171.66;5086799;28;19920;-84
2023/04/19 02:32:11;;;;;;;;;;;;;;;26.67;31.32;98173.50;5094098;28;20007;-84
2023/04/19 02:34:37;;;;;;;;;;;;;;;26.92;30.71;98166.31;5087811;28;19931;-84
2023/04/19 02:37:03;;;;;;;;;;;;;;;27.05;30.96;98164.28;5083809;28;19920;-83
2023/04/19 02:39:29;;;;;;;;;;;;;;;27.08;30.72;98166.19;5095178;28;19916;-84
2023/04/19 02:41:55;;;;;;;;;;;;;;;27.06;30.50;98165.84;5084484;28;19920;-84
2023/04/19 02:44:21;;;;;;;;;;;;;;;26.83;30.29;98158.53;5088813;28;19970;-84
2023/04/19 02:46:48;;;;;;;;;;;;;;;26.37;30.82;98162.72;5087504;28;20027;-84
2023/04/19 02:49:15;;;;;;;;;;;;;;;26.22;30.99;98158.78;5085245;28;19920;-84
2023/04/19 02:51:41;;;;;;;;;;;;;;;25.98;31.80;98158.22;5082380;28;20367;-84
2023/04/19 02:54:07;;;;;;;;;;;;;;;25.80;31.59;98159.94;5088344;28;19972;-84
2023/04/19 02:56:33;;;;;;;;;;;;;;;25.68;32.01;98152.25;5084435;28;20393;-84
2023/04/19 02:58:59;;;;;;;;;;;;;;;25.79;31.87;98147.91;5091566;28;19920;-84
2023/04/19 03:01:25;;;;;;;;;;;;;;;25.90;31.75;98142.78;5088201;28;19920;-84
2023/04/19 03:03:51;;;;;;;;;;;;;;;25.94;31.90;98145.50;5093450;28;20371;-84
2023/04/19 03:06:17;;;;;;;;;;;;;;;25.96;31.07;98137.38;5090603;28;19969;-84
2023/04/19 03:08:44;;;;;;;;;;;;;;;25.65;32.14;98141.91;5089868;28;20346;-84
2023/04/19 03:11:10;;;;;;;;;;;;;;;25.71;31.53;98140.91;5087028;28;19993;-84
2023/04/19 03:13:36;;;;;;;;;;;;;;;25.46;32.08;98135.19;5085231;28;19973;-84
2023/04/19 03:16:02;;;;;;;;;;;;;;;25.49;32.02;98139.09;5081985;28;19927;-84
2023/04/19 03:18:28;;;;;;;;;;;;;;;25.23;32.37;98138.94;5097186;28;19916;-84
2023/04/19 03:20:54;;;;;;;;;;;;;;;24.98;32.89;98135.16;5093832;28;19924;-84
2023/04/19 03:23:21;;;;;;;;;;;;;;;24.95;33.11;98133.25;5095112;28;19923;-84
2023/04/19 03:25:47;;;;;;;;;;;;;;;25.03;32.73;98129.81;5087671;28;19916;-84
2023/04/19 03:28:13;;;;;;;;;;;;;;;25.32;31.66;98132.72;5075403;28;19927;-84
2023/04/19 03:30:39;;;;;;;;;;;;;;;25.38;32.15;98131.72;5091139;28;19931;-84
2023/04/19 03:33:05;;;;;;;;;;;;;;;25.49;31.57;98122.22;5093296;28;19920;-84
2023/04/19 03:35:31;;;;;;;;;;;;;;;25.30;32.04;98119.06;5098106;28;19931;-84
2023/04/19 03:37:57;;;;;;;;;;;;;;;25.33;32.00;98128.66;5091790;28;19919;-84
2023/04/19 03:40:23;;;;;;;;;;;;;;;25.77;31.41;98121.44;5091124;28;20039;-84
2023/04/19 03:42:49;;;;;;;;;;;;;;;26.00;31.16;98112.75;5092349;28;20037;-84
2023/04/19 03:45:15;;;;;;;;;;;;;;;25.87;30.74;98117.56;5085291;28;20368;-85
2023/04/19 03:47:41;;;;;;;;;;;;;;;25.55;31.36;98110.03;5086105;28;19954;-85
2023/04/19 03:50:08;;;;;;;;;;;;;;;25.44;31.40;98109.50;5082446;28;20376;-84
2023/04/19 03:52:34;;;;;;;;;;;;;;;25.72;30.91;98102.34;5089446;28;19959;-84
2023/04/19 03:55:00;;;;;;;;;;;;;;;25.52;30.79;98101.66;5084348;28;19967;-83
2023/04/19 03:57:26;;;;;;;;;;;;;;;25.03;31.78;98092.50;5080809;28;19928;-84
2023/04/19 03:59:52;;;;;;;;;;;;;;;24.75;32.41;98099.59;5088410;28;19920;-84
2023/04/19 04:02:18;;;;;;;;;;;;;;;24.84;32.07;98097.00;5085659;28;19920;-85
2023/04/19 04:04:44;;;;;;;;;;;;;;;24.80;31.73;98099.09;5086809;28;19916;-84
2023/04/19 04:07:10;;;;;;;;;;;;;;;24.55;32.30;98096.84;5087866;28;19942;-85
2023/04/19 04:09:36;;;;;;;;;;;;;;;24.25;33.52;98091.53;5092266;28;19959;-84
2023/04/19 04:12:02;;;;;;;;;;;;;;;23.65;33.31;98104.00;5093722;28;19924;-84
2023/04/19 04:14:28;;;;;;;;;;;;;;;23.86;33.75;98092.38;5092263;28;19931;-84
2023/04/19 04:16:54;;;;;;;;;;;;;;;23.96;32.97;98093.38;5079772;28;20279;-84
2023/04/19 04:19:20;;;;;;;;;;;;;;;24.17;32.64;98095.75;5088243;28;19974;-85
2023/04/19 04:21:48;;;;;;;;;;;;;;;24.58;31.92;98090.38;5091744;28;19920;-85
2023/04/19 04:24:14;;;;;;;;;;;;;;;23.96;33.86;98090.56;5083730;28;19920;-84
2023/04/19 04:26:41;;;;;;;;;;;;;;;23.06;34.33;98092.66;5087544;28;19981;-85
2023/04/19 04:29:07;;;;;;;;;;;;;;;23.29;34.24;98094.69;5082243;28;19927;-85
2023/04/19 04:31:34;;;;;;;;;;;;;;;22.05;38.20;98093.03;5079214;28;20019;-86
2023/04/19 04:34:01;;;;;;;;;;;;;;;20.81;40.62;98092.75;5078677;28;19924;-86
2023/04/19 04:36:28;;;;;;;;;;;;;;;20.48;42.04;98102.59;5071189;28;19934;-86
2023/04/19 04:38:55;;;;;;;;;;;;;;;20.50;42.40;98087.03;5065145;28;19928;-84
2023/04/19 04:41:22;;;;;;;;;;;;;;;20.98;38.81;98103.00;5080761;28;19935;-85
2023/04/19 04:43:50;;;;;;;;;;;;;;;21.77;37.47;98096.19;5086739;28;19932;-83
2023/04/19 04:46:16;;;;;;;;;;;;;;;23.41;34.23;98087.69;5084300;28;20324;-83
2023/04/19 04:48:42;;;;;;;;;;;;;;;21.84;38.67;98093.31;5080575;28;19928;-83
2023/04/19 04:51:08;;;;;;;;;;;;;;;22.83;34.78;98080.69;5083341;28;19977;-85
2023/04/19 04:53:34;;;;;;;;;;;;;;;24.01;32.67;98082.41;5087783;28;19920;-85
2023/04/19 04:56:00;;;;;;;;;;;;;;;24.47;32.05;98086.22;5092563;28;19923;-86
2023/04/19 04:58:26;;;;;;;;;;;;;;;25.01;31.68;98083.72;5082705;28;19939;-85
2023/04/19 05:00:52;;;;;;;;;;;;;;;23.95;33.12;98084.16;5084710;28;19934;-85
2023/04/19 05:03:18;;;;;;;;;;;;;;;24.08;31.97;98086.34;5085299;28;19963;-90
2023/04/19 05:05:44;;;;;;;;;;;;;;;24.16;32.63;98082.94;5080077;28;19920;-83
2023/04/19 05:08:11;;;;;;;;;;;;;;;24.50;31.50;98077.75;5074867;28;19927;-84
2023/04/19 05:10:37;;;;;;;;;;;;;;;24.89;31.05;98073.19;5090446;28;20288;-83
2023/04/19 05:13:03;;;;;;;;;;;;;;;24.90;30.95;98072.75;5093610;28;20007;-83
2023/04/19 05:15:29;;;;;;;;;;;;;;;24.59;31.06;98066.69;5091611;28;19936;-84
2023/04/19 05:17:55;;;;;;;;;;;;;;;24.46;31.62;98070.59;5110584;28;20375;-83
2023/04/19 05:20:21;;;;;;;;;;;;;;;24.95;30.95;98066.63;5114007;28;19916;-83
2023/04/19 05:22:47;;;;;;;;;;;;;;;25.04;30.95;98075.19;5113830;28;19920;-83
2023/04/19 05:25:13;;;;;;;;;;;;;;;25.03;31.38;98072.84;5105928;28;20273;-83
2023/04/19 05:27:39;;;;;;;;;;;;;;;24.97;31.87;98080.22;5084343;28;20013;-83
2023/04/19 05:30:05;;;;;;;;;;;;;;;25.40;31.88;98075.06;5093539;28;19916;-83
2023/04/19 05:32:31;;;;;;;;;;;;;;;26.11;30.42;98075.91;5091492;28;19963;-83
2023/04/19 05:34:57;;;;;;;;;;;;;;;26.31;29.92;98071.63;5093549;28;20000;-84
2023/04/19 05:37:24;;;;;;;;;;;;;;;26.23;29.80;98073.09;5094966;28;19920;-84
2023/04/19 05:39:50;;;;;;;;;;;;;;;26.49;28.68;98076.72;5097224;28;19963;-83
2023/04/19 05:42:16;;;;;;;;;;;;;;;26.13;30.39;98071.41;5096526;28;19916;-83
2023/04/19 05:44:42;;;;;;;;;;;;;;;24.69;30.93;98081.72;5093836;28;19955;-84
2023/04/19 05:47:08;;;;;;;;;;;;;;;24.85;30.75;98078.94;5095854;28;19920;-83
2023/04/19 05:49:34;;;;;;;;;;;;;;;24.93;31.90;98083.13;5098639;28;19924;-83
2023/04/19 05:52:00;;;;;;;;;;;;;;;25.40;30.61;98075.84;5093218;28;19921;-83
2023/04/19 05:54:27;;;;;;;;;;;;;;;25.42;30.52;98084.63;5097150;28;19923;-83
2023/04/19 05:56:53;;;;;;;;;;;;;;;25.41;30.04;98082.28;5091642;28;19917;-83
2023/04/19 05:59:19;;;;;;;;;;;;;;;25.51;30.41;98080.44;5087585;28;20410;-83
2023/04/19 06:01:45;;;;;;;;;;;;;;;25.39;31.01;98084.75;5076882;28;19917;-83
2023/04/19 06:04:11;;;;;;;;;;;;;;;25.56;30.70;98083.47;5076870;28;19924;-83
2023/04/19 06:06:38;;;;;;;;;;;;;;;25.25;30.91;98079.50;5083001;28;19920;-83
2023/04/19 06:09:05;;;;;;;;;;;;;;;24.18;32.78;98079.69;5092590;28;19920;-84
2023/04/19 06:11:31;;;;;;;;;;;;;;;22.59;34.82;98088.25;5096115;28;20295;-83
2023/04/19 06:13:57;;;;;;;;;;;;;;;23.35;33.89;98082.56;5096826;28;19997;-84
2023/04/19 06:16:23;;;;;;;;;;;;;;;24.12;32.79;98079.41;5091931;28;20371;-83
2023/04/19 06:18:49;;;;;;;;;;;;;;;24.53;32.27;98082.47;5084227;28;19927;-82
2023/04/19 06:21:15;;;;;;;;;;;;;;;23.91;32.09;98080.66;5095432;28;19920;-82
2023/04/19 06:23:41;;;;;;;;;;;;;;;22.65;34.73;98073.38;5096340;28;20377;-83
2023/04/19 06:26:07;;;;;;;;;;;;;;;22.55;34.76;98081.91;5096689;28;19927;-82
2023/04/19 06:28:33;;;;;;;;;;;;;;;23.53;33.24;98070.22;5096393;28;19916;-82
2023/04/19 06:31:00;;;;;;;;;;;;;;;24.08;33.36;98078.72;5096614;28;20367;-82
2023/04/19 06:33:26;;;;;;;;;;;;;;;24.28;32.26;98082.25;5091233;28;19924;-82
2023/04/19 06:35:52;;;;;;;;;;;;;;;24.69;31.62;98082.47;5089908;28;19920;-82
2023/04/19 06:38:19;;;;;;;;;;;;;;;24.68;31.96;98077.31;5096043;28;20299;-82
2023/04/19 06:40:45;;;;;;;;;;;;;;;24.70;32.19;98078.44;5098694;28;19927;-82
2023/04/19 06:43:11;;;;;;;;;;;;;;;25.03;31.49;98078.47;5100685;28;20413;-82
2023/04/19 06:45:37;;;;;;;;;;;;;;;25.15;31.09;98086.19;5096032;28;19947;-82
2023/04/19 06:48:03;;;;;;;;;;;;;;;25.20;31.27;98082.84;5090139;28;20295;-82
2023/04/19 06:50:29;;;;;;;;;;;;;;;24.61;31.51;98091.50;5076516;28;19969;-82
2023/04/19 06:52:55;;;;;;;;;;;;;;;24.40;33.03;98089.22;5075676;28;19916;-82
2023/04/19 06:55:21;;;;;;;;;;;;;;;24.15;32.50;98081.38;5075752;28;20445;-82
2023/04/19 06:57:47;;;;;;;;;;;;;;;24.57;31.90;98077.56;5084089;28;20049;-82
2023/04/19 07:00:13;;;;;;;;;;;;;;;24.75;31.95;98079.94;5095956;28;19922;-82
2023/04/19 07:02:39;;;;;;;;;;;;;;;24.84;31.42;98082.94;5095833;28;19923;-82
2023/04/19 07:05:06;;;;;;;;;;;;;;;24.87;31.72;98079.28;5095032;28;20019;-81
2023/04/19 07:07:32;;;;;;;;;;;;;;;24.43;31.81;98069.50;5087421;28;19916;-81
2023/04/19 07:09:58;;;;;;;;;;;;;;;24.41;31.69;98079.56;5074368;28;19960;-82
2023/04/19 07:12:24;;;;;;;;;;;;;;;24.49;32.16;98072.56;5084120;28;19920;-82
2023/04/19 07:14:55;;;;;;;;;;;;;;;24.95;31.45;98071.47;5095652;28;19931;-81
2023/04/19 07:17:21;;;;;;;;;;;;;;;24.71;32.24;98073.63;5095677;28;20295;-82
2023/04/19 07:19:48;;;;;;;;;;;;;;;24.91;32.20;98068.72;5095579;28;20202;-82
2023/04/19 07:22:14;;;;;;;;;;;;;;;25.13;31.26;98078.19;5094179;28;19916;-82
2023/04/19 07:24:40;;;;;;;;;;;;;;;25.06;31.55;98081.19;5088508;28;20002;-82
2023/04/19 07:27:07;;;;;;;;;;;;;;;25.16;31.11;98087.75;5083366;28;20010;-82
2023/04/19 07:29:36;;;;;;;;;;;;;;;25.20;31.13;98083.63;5095385;28;20034;-81
2023/04/19 07:32:02;;;;;;;;;;;;;;;25.41;31.14;98082.28;5095342;28;19917;-81
2023/04/19 07:34:28;;;;;;;;;;;;;;;24.99;31.35;98087.00;5088009;28;19924;-81
2023/04/19 07:36:54;;;;;;;;;;;;;;;24.82;30.90;98082.59;5095215;28;19916;-81
2023/04/19 07:39:20;;;;;;;;;;;;;;;24.12;31.90;98081.44;5095255;28;19917;-81
2023/04/19 07:41:46;;;;;;;;;;;;;;;23.94;32.35;98087.41;5083293;28;20273;-81
2023/04/19 07:44:13;;;;;;;;;;;;;;;24.25;32.46;98087.97;5075028;28;19924;-82
2023/04/19 07:46:41;;;;;;;;;;;;;;;24.56;31.78;98086.41;5074740;28;19916;-81
2023/04/19 07:49:07;;;;;;;;;;;;;;;24.98;30.95;98081.78;5074873;28;19924;-81
2023/04/19 07:51:33;;;;;;;;;;;;;;;25.30;30.88;98079.72;5074472;28;19919;-82
2023/04/19 07:54:00;;;;;;;;;;;;;;;25.34;29.77;98086.03;5073298;28;20445;-82
2023/04/19 07:56:26;;;;;;;;;;;;;;;25.52;29.84;98079.97;5084081;28;19916;-82
2023/04/19 07:58:52;;;;;;;;;;;;;;;25.15;31.12;98091.78;5086106;28;19955;-82
2023/04/19 08:01:18;;;;;;;;;;;;;;;25.27;30.43;98085.47;5074576;28;19921;-82
2023/04/19 08:03:45;;;;;;;;;;;;;;;25.21;30.61;98082.38;5074264;28;19912;-82
2023/04/19 08:06:13;;;;;;;;;;;;;;;25.61;29.38;98088.56;5074431;28;19920;-82
2023/04/19 08:08:39;;;;;;;;;;;;;;;25.23;30.05;98079.13;5093625;28;19999;-82
2023/04/19 08:11:05;;;;;;;;;;;;;;;24.68;30.71;98077.31;5091408;28;20015;-80
2023/04/19 08:13:31;;;;;;;;;;;;;;;22.26;37.10;98086.34;5093024;28;19932;-81
2023/04/19 08:15:57;;;;;;;;;;;;;;;19.81;41.29;98098.16;5083922;28;20419;-81
2023/04/19 08:18:23;;;;;;;;;;;;;;;18.96;44.01;98096.78;5074610;28;20271;-81
2023/04/19 08:20:49;;;;;;;;;;;;;;;17.57;46.47;98097.72;5074148;28;19948;-80
2023/04/19 08:23:15;;;;;;;;;;;;;;;18.34;43.35;98099.13;5074136;28;19917;-80
2023/04/19 08:25:42;;;;;;;;;;;;;;;17.15;47.17;98095.47;5079252;28;20041;-80
2023/04/19 08:28:08;;;;;;;;;;;;;;;17.33;47.03;98095.59;5093159;28;20425;-80
2023/04/19 08:30:34;;;;;;;;;;;;;;;18.06;44.04;98094.31;5094508;28;19923;-80
2023/04/19 08:33:00;;;;;;;;;;;;;;;19.29;40.49;98094.34;5089557;28;19920;-83
2023/04/19 08:35:26;;;;;;;;;;;;;;;18.76;44.15;98095.59;5093692;28;19916;-80
2023/04/19 08:37:52;;;;;;;;;;;;;;;19.56;40.00;98093.88;5094034;28;19924;-80
2023/04/19 08:40:18;;;;;;;;;;;;;;;18.20;45.28;98104.66;5093111;28;19924;-80
2023/04/19 08:42:44;;;;;;;;;;;;;;;18.41;43.88;98099.13;5093792;28;19924;-80
2023/04/19 08:45:12;;;;;;;;;;;;;;;19.50;40.76;98101.88;5091805;28;19924;-80
2023/04/19 08:47:39;;;;;;;;;;;;;;;18.82;43.20;98105.13;5090668;28;19924;-80
2023/04/19 08:50:06;;;;;;;;;;;;;;;19.88;40.02;98108.50;5082224;28;19969;-80
2023/04/19 08:52:35;;;;;;;;;;;;;;;19.82;39.77;98110.09;5074040;28;19916;-80
2023/04/19 08:55:05;;;;;;;;;;;;;;;20.02;39.80;98105.63;5078791;28;19924;-80
2023/04/19 08:57:32;;;;;;;;;;;;;;;19.86;39.19;98111.66;5073384;28;19917;-80
2023/04/19 08:59:59;;;;;;;;;;;;;;;21.00;36.02;98106.16;5073521;28;20300;-80
2023/04/19 09:02:25;;;;;;;;;;;;;;;21.54;35.65;98101.66;5073639;28;20360;-80
2023/04/19 09:04:51;;;;;;;;;;;;;;;21.03;35.26;98117.28;5090392;28;20332;-80
2023/04/19 09:07:24;;;;;;;;;;;;;;;21.84;35.60;98110.84;5080491;28;19926;-80
2023/04/19 09:10:07;;;;;;;;;;;;;;;20.61;37.42;98112.84;5071706;28;19927;-80
2023/04/19 09:12:34;;;;;;;;;;;;;;;20.72;36.65;98107.19;5073242;28;19916;-80
2023/04/19 09:15:03;;;;;;;;;;;;;;;21.51;35.46;98105.25;5073893;28;19920;-80
2023/04/19 09:17:30;;;;;;;;;;;;;;;19.94;38.37;98106.84;5072977;28;19920;-80
2023/04/19 09:19:56;;;;;;;;;;;;;;;20.07;39.15;98107.97;5092618;28;19920;-80
2023/04/19 09:22:22;;;;;;;;;;;;;;;19.35;41.06;98105.06;5086462;28;19924;-81
2023/04/19 09:24:50;;;;;;;;;;;;;;;19.97;38.78;98111.63;5081740;28;20011;-80
2023/04/19 09:27:23;;;;;;;;;;;;;;;20.57;39.73;98111.28;5093726;28;19966;-80
2023/04/19 09:29:54;;;;;;;;;;;;;;;20.67;37.49;98111.22;5093510;28;19923;-81
2023/04/19 09:32:20;;;;;;;;;;;;;;;20.12;39.90;98110.34;5092371;28;19913;-81
2023/04/19 09:34:51;;;;;;;;;;;;;;;20.34;39.45;98105.47;5091735;28;19948;-80
2023/04/19 09:37:17;;;;;;;;;;;;;;;20.68;37.30;98106.41;5092122;28;20345;-80
2023/04/19 09:39:43;;;;;;;;;;;;;;;20.86;36.90;98109.88;5093416;28;20007;-81
2023/04/19 09:42:09;;;;;;;;;;;;;;;20.50;39.07;98114.13;5104144;28;19966;-81
2023/04/19 09:44:35;;;;;;;;;;;;;;;20.33;38.76;98109.44;5113551;28;19960;-81
2023/04/19 09:47:01;;;;;;;;;;;;;;;19.94;40.75;98107.66;5113418;28;19923;-81
2023/04/19 09:49:27;;;;;;;;;;;;;;;21.64;36.44;98109.88;5097991;28;20287;-81
2023/04/19 09:51:54;;;;;;;;;;;;;;;21.50;36.29;98112.84;5093162;28;19916;-81
2023/04/19 09:54:22;;;;;;;;;;;;;;;22.22;35.55;98108.78;5088690;28;20283;-81
2023/04/19 09:56:48;;;;;;;;;;;;;;;21.60;37.17;98108.34;5085929;28;19969;-81
2023/04/19 09:59:15;;;;;;;;;;;;;;;21.93;37.45;98118.75;5091807;28;19947;-81
2023/04/19 10:01:43;;;;;;;;;;;;;;;21.44;36.33;98122.91;5092967;28;19916;-81
2023/04/19 10:04:10;;;;;;;;;;;;;;;21.75;37.21;98112.56;5093360;28;20330;-81
2023/04/19 10:06:37;;;;;;;;;;;;;;;22.44;34.72;98115.66;5092395;28;19920;-81
2023/04/19 10:09:04;;;;;;;;;;;;;;;22.80;35.18;98112.34;5093009;28;19916;-81
2023/04/19 10:11:35;;;;;;;;;;;;;;;21.89;37.80;98109.63;5092628;28;20359;-82
2023/04/19 10:14:03;;;;;;;;;;;;;;;20.99;38.96;98113.72;5091573;28;20018;-82
2023/04/19 10:16:29;;;;;;;;;;;;;;;19.22;44.58;98119.41;5085737;28;19920;-82
2023/04/19 10:18:56;;;;;;;;;;;;;;;18.42;45.54;98120.97;5093143;28;19958;-83
2023/04/19 10:21:22;;;;;;;;;;;;;;;18.64;45.84;98116.25;5093396;28;19923;-82
2023/04/19 10:23:49;;;;;;;;;;;;;;;19.78;41.37;98114.88;5091950;28;19924;-82
2023/04/19 10:26:15;;;;;;;;;;;;;;;19.50;42.92;98110.22;5087272;28;19980;-83
2023/04/19 10:28:41;;;;;;;;;;;;;;;20.15;41.23;98109.53;5090859;28;19920;-82
2023/04/19 10:31:10;;;;;;;;;;;;;;;19.73;42.59;98118.09;5091730;28;19972;-82
2023/04/19 10:33:36;;;;;;;;;;;;;;;20.30;41.58;98113.06;5092648;28;20002;-82
2023/04/19 10:36:03;;;;;;;;;;;;;;;21.42;37.13;98116.13;5095920;28;20004;-82
2023/04/19 10:38:40;;;;;;;;;;;;;;;23.01;35.99;98109.19;5094522;28;19946;-82
2023/04/19 10:41:15;;;;;;;;;;;;;;;23.86;34.31;98103.56;5096177;28;19937;-82
2023/04/19 10:44:07;;;;;;;;;;;;;;;23.76;33.11;98104.56;5096280;28;19927;-82
2023/04/19 10:46:34;;;;;;;;;;;;;;;22.89;37.12;98109.78;5089818;28;19932;-82
2023/04/19 10:49:01;;;;;;;;;;;;;;;21.63;37.89;98107.53;5090383;28;19920;-82
2023/04/19 10:51:35;;;;;;;;;;;;;;;21.50;36.43;98112.84;5096097;28;19912;-81
2023/04/19 10:54:02;;;;;;;;;;;;;;;22.21;35.02;98109.19;5093929;28;20306;-81
2023/04/19 10:56:34;;;;;;;;;;;;;;;20.68;40.93;98121.16;5094046;28;19919;-81
2023/04/19 10:59:00;;;;;;;;;;;;;;;19.55;42.51;98109.81;5093239;28;19920;-82
2023/04/19 11:01:41;;;;;;;;;;;;;;;19.64;43.38;98112.97;5094309;28;19922;-82
2023/04/19 11:04:08;;;;;;;;;;;;;;;21.00;39.62;98100.56;5093470;28;19927;-81
2023/04/19 11:06:35;;;;;;;;;;;;;;;20.45;42.44;98106.19;5085593;28;19916;-81
2023/04/19 11:09:04;;;;;;;;;;;;;;;20.30;45.06;98096.34;5090081;28;19920;-81
2023/04/19 11:11:34;;;;;;;;;;;;;;;21.03;39.86;98094.94;5090786;28;19927;-81
2023/04/19 11:14:01;;;;;;;;;;;;;;;21.06;42.38;98090.56;5091295;28;19924;-81
2023/04/19 11:16:27;;;;;;;;;;;;;;;20.67;42.07;98090.88;5094442;28;19924;-81
2023/04/19 11:18:54;;;;;;;;;;;;;;;20.68;42.55;98093.25;5092237;28;19924;-82
2023/04/19 11:21:21;;;;;;;;;;;;;;;19.92;45.56;98084.19;5093751;28;19974;-81
2023/04/19 11:23:48;;;;;;;;;;;;;;;19.89;45.76;98088.56;5085581;28;19972;-82
2023/04/19 11:26:15;;;;;;;;;;;;;;;19.74;44.03;98086.25;5093673;28;19923;-81
2023/04/19 11:28:43;;;;;;;;;;;;;;;21.35;41.43;98089.84;5094858;28;19967;-82
2023/04/19 11:31:09;;;;;;;;;;;;;;;20.70;47.79;98092.06;5093950;28;19912;-82
2023/04/19 11:33:36;;;;;;;;;;;;;;;20.79;43.34;98084.00;5094247;28;19961;-81
2023/04/19 11:36:02;;;;;;;;;;;;;;;21.13;46.16;98093.28;5090694;28;19916;-82
2023/04/19 11:38:31;;;;;;;;;;;;;;;20.11;47.87;98094.03;5093877;28;19928;-82
2023/04/19 11:41:01;;;;;;;;;;;;;;;20.82;41.14;98095.13;5080320;28;19916;-82
2023/04/19 11:43:36;;;;;;;;;;;;;;;20.50;45.73;98087.03;5091054;28;20451;-81
2023/04/19 11:46:06;;;;;;;;;;;;;;;19.79;49.02;98089.41;5091409;28;20368;-81
2023/04/19 11:48:33;;;;;;;;;;;;;;;20.26;41.71;98106.69;5093970;28;19916;-81
2023/04/19 11:50:59;;;;;;;;;;;;;;;21.50;40.77;98098.88;5094939;28;19923;-81
2023/04/19 11:53:26;;;;;;;;;;;;;;;21.55;39.97;98104.00;5088657;28;19973;-82
2023/04/19 11:55:53;;;;;;;;;;;;;;;21.35;41.30;98111.44;5094375;28;20350;-82
2023/04/19 11:58:22;;;;;;;;;;;;;;;21.65;39.94;98114.28;5093016;28;19924;-81
2023/04/19 12:00:48;;;;;;;;;;;;;;;21.21;42.01;98108.78;5094840;28;19924;-81
2023/04/19 12:03:15;;;;;;;;;;;;;;;21.86;36.61;98110.47;5093797;28;19920;-82
2023/04/19 12:05:51;;;;;;;;;;;;;;;22.43;35.75;98110.47;5094538;28;19920;-81
2023/04/19 12:08:17;;;;;;;;;;;;;;;21.95;36.96;98116.34;5094664;28;20360;-82
2023/04/19 12:10:56;;;;;;;;;;;;;;;23.14;34.89;98112.94;5093252;28;19963;-82
2023/04/19 12:13:23;;;;;;;;;;;;;;;22.84;35.78;98121.47;5089426;28;19922;-82
2023/04/19 12:15:49;;;;;;;;;;;;;;;22.26;38.20;98119.91;5092155;28;19972;-81
2023/04/19 12:18:16;;;;;;;;;;;;;;;20.94;40.97;98125.31;5093185;28;20371;-81
2023/04/19 12:20:46;;;;;;;;;;;;;;;20.62;41.08;98127.59;5093505;28;20368;-81
2023/04/19 12:23:15;;;;;;;;;;;;;;;21.85;37.82;98120.03;5084298;28;20031;-81
2023/04/19 12:25:43;;;;;;;;;;;;;;;21.85;39.89;98118.03;5091121;28;19977;-81
2023/04/19 12:28:09;;;;;;;;;;;;;;;20.94;40.01;98125.31;5094141;28;19920;-82
2023/04/19 12:30:35;;;;;;;;;;;;;;;21.19;39.25;98125.91;5088421;28;20401;-82
2023/04/19 12:33:02;;;;;;;;;;;;;;;20.52;42.39;98132.03;5073989;28;19916;-82
2023/04/19 12:35:28;;;;;;;;;;;;;;;22.87;36.02;98127.00;5081786;28;20370;-81
2023/04/19 12:37:55;;;;;;;;;;;;;;;22.35;37.87;98123.78;5094091;28;20037;-82
2023/04/19 12:40:22;;;;;;;;;;;;;;;21.55;39.80;98117.19;5092336;28;20028;-81
2023/04/19 12:42:49;;;;;;;;;;;;;;;21.56;38.07;98129.94;5083704;28;19928;-82
2023/04/19 12:45:15;;;;;;;;;;;;;;;20.53;40.43;98122.47;5080761;28;19932;-82